createdAt,value
2023-07-11T00:00:25.682Z,22.20
2023-07-11T00:06:35.072Z,22.20
2023-07-11T00:09:23.519Z,22.10
2023-07-11T00:18:37.612Z,22.00
2023-07-11T00:24:10.550Z,21.90
2023-07-11T00:27:13.200Z,21.80
2023-07-11T00:32:58.191Z,21.70
2023-07-11T00:35:39.231Z,21.70
2023-07-11T00:38:14.982Z,21.70
2023-07-11T00:40:49.807Z,21.60
2023-07-11T00:43:32.694Z,21.50
2023-07-11T00:46:43.813Z,21.50
2023-07-11T00:49:33.037Z,21.60
2023-07-11T00:52:13.702Z,21.40
2023-07-11T00:55:04.060Z,21.40
2023-07-11T00:58:11.423Z,21.40
2023-07-11T01:00:56.918Z,21.40
2023-07-11T01:04:07.629Z,21.30
2023-07-11T01:06:52.366Z,21.30
2023-07-11T01:09:29.964Z,21.30
2023-07-11T01:15:07.576Z,21.20
2023-07-11T01:18:06.923Z,21.20
2023-07-11T01:20:59.017Z,21.10
2023-07-11T01:23:49.781Z,21.10
2023-07-11T01:29:50.936Z,21.00
2023-07-11T01:32:23.776Z,21.00
2023-07-11T01:35:14.976Z,20.90
2023-07-11T01:37:56.586Z,20.90
2023-07-11T01:40:45.910Z,20.80
2023-07-11T01:43:22.040Z,20.80
2023-07-11T01:46:03.992Z,20.80
2023-07-11T01:48:42.820Z,20.80
2023-07-11T01:51:32.068Z,20.70
2023-07-11T01:54:26.604Z,20.70
2023-07-11T01:57:00.745Z,20.70
2023-07-11T01:59:35.488Z,20.60
2023-07-11T02:02:12.402Z,20.60
2023-07-11T02:05:05.819Z,20.60
2023-07-11T02:07:51.983Z,20.60
2023-07-11T02:10:32.334Z,20.60
2023-07-11T02:13:17.106Z,20.60
2023-07-11T02:16:00.635Z,20.60
2023-07-11T02:18:48.502Z,20.60
2023-07-11T02:21:58.304Z,20.60
2023-07-11T02:27:53.011Z,20.60
2023-07-11T02:30:46.697Z,20.50
2023-07-11T02:33:31.338Z,20.50
2023-07-11T02:36:29.565Z,20.50
2023-07-11T02:39:04.600Z,20.40
2023-07-11T02:42:12.816Z,20.40
2023-07-11T02:44:56.263Z,20.40
2023-07-11T02:47:52.339Z,20.40
2023-07-11T02:51:07.094Z,20.40
2023-07-11T02:53:52.768Z,20.30
2023-07-11T02:56:47.462Z,20.30
2023-07-11T02:59:24.159Z,20.20
2023-07-11T03:02:23.068Z,20.20
2023-07-11T03:04:58.395Z,20.20
2023-07-11T03:07:35.379Z,20.10
2023-07-11T03:10:16.687Z,20.10
2023-07-11T03:12:48.758Z,20.00
2023-07-11T03:15:25.372Z,19.90
2023-07-11T03:18:38.718Z,19.90
2023-07-11T03:21:40.476Z,19.80
2023-07-11T03:36:48.026Z,19.70
2023-07-11T03:46:04.141Z,19.50
2023-07-11T03:49:55.418Z,19.60
2023-07-11T03:56:34.928Z,19.50
2023-07-11T03:59:09.127Z,19.40
2023-07-11T04:02:10.684Z,19.50
2023-07-11T04:04:43.492Z,19.50
2023-07-11T04:07:16.186Z,19.50
2023-07-11T04:09:48.445Z,19.50
2023-07-11T04:12:20.541Z,19.50
2023-07-11T04:14:52.553Z,19.50
2023-07-11T04:17:24.666Z,19.50
2023-07-11T04:19:57.387Z,19.50
2023-07-11T04:22:30.681Z,19.60
2023-07-11T04:25:03.020Z,19.60
2023-07-11T04:27:36.766Z,19.60
2023-07-11T04:30:09.754Z,19.70
2023-07-11T04:32:42.442Z,19.80
2023-07-11T04:35:15.714Z,19.80
2023-07-11T04:37:47.966Z,19.90
2023-07-11T04:40:20.024Z,20.00
2023-07-11T04:42:52.381Z,20.00
2023-07-11T04:45:24.412Z,20.10
2023-07-11T04:47:56.940Z,20.10
2023-07-11T04:50:29.279Z,20.20
2023-07-11T04:53:01.918Z,20.30
2023-07-11T04:55:35.112Z,20.40
2023-07-11T04:58:07.076Z,20.50
2023-07-11T05:00:39.166Z,20.50
2023-07-11T05:03:11.205Z,20.60
2023-07-11T05:05:43.671Z,20.70
2023-07-11T05:08:15.764Z,20.80
2023-07-11T05:11:08.480Z,20.90
2023-07-11T05:13:47.400Z,21.00
2023-07-11T05:16:25.519Z,21.00
2023-07-11T05:19:00.416Z,21.10
2023-07-11T05:21:32.779Z,21.20
2023-07-11T05:24:05.394Z,21.20
2023-07-11T05:26:38.321Z,21.30
2023-07-11T05:29:10.383Z,21.40
2023-07-11T05:31:43.622Z,21.50
2023-07-11T05:34:15.931Z,21.60
2023-07-11T05:36:48.111Z,21.70
2023-07-11T05:39:20.527Z,21.80
2023-07-11T05:41:53.495Z,21.90
2023-07-11T05:44:28.009Z,21.90
2023-07-11T05:47:00.942Z,22.00
2023-07-11T05:49:33.129Z,22.10
2023-07-11T05:52:05.710Z,22.30
2023-07-11T05:54:37.893Z,22.40
2023-07-11T05:57:09.965Z,22.60
2023-07-11T05:59:41.978Z,22.70
2023-07-11T06:02:14.042Z,22.90
2023-07-11T06:04:46.053Z,23.00
2023-07-11T06:10:05.350Z,23.40
2023-07-11T06:12:38.431Z,23.60
2023-07-11T06:15:10.637Z,23.80
2023-07-11T06:17:42.809Z,24.00
2023-07-11T06:20:15.850Z,24.30
2023-07-11T06:22:48.043Z,24.60
2023-07-11T06:53:02.920Z,30.30
2023-07-11T06:55:36.135Z,31.10
2023-07-11T06:58:08.192Z,31.40
2023-07-11T07:00:40.416Z,31.80
2023-07-11T07:03:27.755Z,32.00
2023-07-11T07:06:14.902Z,32.30
2023-07-11T07:08:52.756Z,33.00
2023-07-11T07:11:38.379Z,33.60
2023-07-11T07:14:20.816Z,34.00
2023-07-11T07:16:57.801Z,34.40
2023-07-11T07:19:35.409Z,34.50
2023-07-11T07:22:12.573Z,34.80
2023-07-11T07:24:54.348Z,34.50
2023-07-11T07:27:31.713Z,34.30
2023-07-11T07:30:07.799Z,34.40
2023-07-11T07:32:53.551Z,34.60
2023-07-11T07:35:32.299Z,34.40
2023-07-11T07:38:15.329Z,34.50
2023-07-11T07:40:53.997Z,34.70
2023-07-11T07:43:37.810Z,34.80
2023-07-11T07:46:32.721Z,34.90
2023-07-11T07:49:16.659Z,35.20
2023-07-11T07:52:12.169Z,35.30
2023-07-11T07:54:52.354Z,35.60
2023-07-11T07:57:31.887Z,35.60
2023-07-11T08:00:10.513Z,35.80
2023-07-11T08:02:48.045Z,36.00
2023-07-11T08:08:27.291Z,36.60
2023-07-11T08:11:09.496Z,36.70
2023-07-11T08:13:59.932Z,37.20
2023-07-11T08:19:43.180Z,37.50
2023-07-11T08:25:19.945Z,37.60
2023-07-11T08:27:56.748Z,37.40
2023-07-11T08:30:30.597Z,37.20
2023-07-11T08:33:12.241Z,36.90
2023-07-11T08:35:50.581Z,36.70
2023-07-11T08:38:31.675Z,36.60
2023-07-11T08:41:27.307Z,36.50
2023-07-11T08:44:43.168Z,36.50
2023-07-11T08:58:41.389Z,35.40
2023-07-11T09:02:05.995Z,35.30
2023-07-11T09:05:31.728Z,35.30
2023-07-11T09:08:58.133Z,35.20
2023-07-11T09:12:08.495Z,35.10
2023-07-11T09:15:27.866Z,34.80
2023-07-11T09:22:43.286Z,34.60
2023-07-11T09:26:07.054Z,34.70
2023-07-11T09:29:14.479Z,34.70
2023-07-11T09:32:12.684Z,34.70
2023-07-11T09:38:32.964Z,34.90
2023-07-11T10:12:58.812Z,35.20
2023-07-11T10:23:18.426Z,35.20
2023-07-11T10:26:45.880Z,35.10
2023-07-11T10:41:59.644Z,35.00
2023-07-11T10:48:12.152Z,35.10
2023-07-11T10:56:05.750Z,35.10
2023-07-11T11:00:29.112Z,35.00
2023-07-11T11:07:54.588Z,35.00
2023-07-11T11:10:53.074Z,35.10
2023-07-11T11:14:49.641Z,35.20
2023-07-11T11:18:13.127Z,35.20
2023-07-11T11:25:07.860Z,35.50
2023-07-11T11:28:21.457Z,35.60
2023-07-11T11:31:29.272Z,35.60
2023-07-11T11:34:35.139Z,35.60
2023-07-11T11:37:59.282Z,35.70
2023-07-11T11:47:21.667Z,36.30
2023-07-11T11:52:44.620Z,36.30
2023-07-11T11:55:34.847Z,36.10
2023-07-11T11:58:17.304Z,36.20
2023-07-11T12:00:52.565Z,36.30
2023-07-11T12:03:40.721Z,36.50
2023-07-11T12:06:35.848Z,36.70
2023-07-11T12:09:19.110Z,37.00
2023-07-11T12:12:16.194Z,37.10
2023-07-11T12:14:54.376Z,37.30
2023-07-11T12:17:33.513Z,37.40
2023-07-11T12:20:35.145Z,37.60
2023-07-11T12:23:27.836Z,37.70
2023-07-11T12:26:18.012Z,37.80
2023-07-11T12:28:55.973Z,37.90
2023-07-11T12:32:16.998Z,37.90
2023-07-11T12:35:09.204Z,37.80
2023-07-11T12:41:46.959Z,37.20
2023-07-11T12:44:32.430Z,37.00
2023-07-11T12:47:16.934Z,37.00
2023-07-11T12:49:55.665Z,37.30
2023-07-11T12:55:45.816Z,37.80
2023-07-11T12:58:52.156Z,38.10
2023-07-11T13:01:44.628Z,38.30
2023-07-11T13:04:46.783Z,38.30
2023-07-11T13:07:42.455Z,38.40
2023-07-11T13:10:31.170Z,38.30
2023-07-11T13:13:12.547Z,37.90
2023-07-11T13:15:46.740Z,37.60
2023-07-11T13:18:52.331Z,37.30
2023-07-11T13:21:28.387Z,37.30
2023-07-11T13:24:06.989Z,37.60
2023-07-11T13:26:46.745Z,37.80
2023-07-11T13:29:30.115Z,37.80
2023-07-11T13:32:23.539Z,37.90
2023-07-11T13:38:05.247Z,38.30
2023-07-11T13:40:47.165Z,38.50
2023-07-11T13:43:25.348Z,38.60
2023-07-11T13:46:00.521Z,38.70
2023-07-11T13:48:35.225Z,39.00
2023-07-11T13:51:25.718Z,39.10
2023-07-11T13:54:16.580Z,39.30
2023-07-11T13:56:51.671Z,39.50
2023-07-11T13:59:36.862Z,39.50
2023-07-11T14:02:18.932Z,39.50
2023-07-11T14:04:51.829Z,39.50
2023-07-11T14:07:24.306Z,39.30
2023-07-11T14:09:56.760Z,39.10
2023-07-11T14:12:29.373Z,38.80
2023-07-11T14:15:01.563Z,38.40
2023-07-11T14:17:44.732Z,38.20
2023-07-11T14:20:24.781Z,38.10
2023-07-11T14:22:59.125Z,38.20
2023-07-11T14:25:32.163Z,38.40
2023-07-11T14:28:11.284Z,38.60
2023-07-11T14:30:45.118Z,38.70
2023-07-11T14:33:20.290Z,38.70
2023-07-11T14:35:53.007Z,38.80
2023-07-11T14:38:26.486Z,38.90
2023-07-11T14:41:04.678Z,39.00
2023-07-11T14:43:40.567Z,38.90
2023-07-11T14:46:18.073Z,38.60
2023-07-11T14:48:52.983Z,38.40
2023-07-11T14:51:36.176Z,38.30
2023-07-11T14:54:22.221Z,38.30
2023-07-11T14:57:15.361Z,38.50
2023-07-11T14:59:49.459Z,38.30
2023-07-11T15:02:33.541Z,38.20
2023-07-11T15:09:27.602Z,38.20
2023-07-11T15:16:53.311Z,38.20
2023-07-11T15:19:27.173Z,38.10
2023-07-11T15:22:06.012Z,38.00
2023-07-11T15:24:45.751Z,38.00
2023-07-11T15:27:20.689Z,38.10
2023-07-11T15:29:53.082Z,38.20
2023-07-11T15:32:25.741Z,38.40
2023-07-11T15:34:58.168Z,38.40
2023-07-11T15:37:30.316Z,38.50
2023-07-11T15:40:02.416Z,38.50
2023-07-11T15:42:35.836Z,38.50
2023-07-11T15:45:28.496Z,38.50
2023-07-11T15:48:02.886Z,38.60
2023-07-11T15:50:35.205Z,38.60
2023-07-11T15:53:07.293Z,38.50
2023-07-11T15:55:42.492Z,38.40
2023-07-11T15:58:26.104Z,38.10
2023-07-11T16:00:58.867Z,37.80
2023-07-11T16:03:31.183Z,37.40
2023-07-11T16:08:47.009Z,36.80
2023-07-11T16:11:21.066Z,36.50
2023-07-11T16:13:55.453Z,36.20
2023-07-11T16:16:28.469Z,36.00
2023-07-11T16:19:01.527Z,35.80
2023-07-11T16:21:33.923Z,35.70
2023-07-11T16:24:13.555Z,35.60
2023-07-11T16:26:51.526Z,35.40
2023-07-11T16:29:27.029Z,35.30
2023-07-11T16:32:01.170Z,35.20
2023-07-11T16:34:33.277Z,35.10
2023-07-11T16:37:19.800Z,34.90
2023-07-11T16:39:53.142Z,34.70
2023-07-11T16:42:25.541Z,34.60
2023-07-11T16:44:58.327Z,34.50
2023-07-11T16:47:31.700Z,34.40
2023-07-11T16:50:03.975Z,34.30
2023-07-11T16:52:44.751Z,34.20
2023-07-11T16:55:17.340Z,34.20
2023-07-11T16:57:49.830Z,34.10
2023-07-11T17:00:27.119Z,34.10
2023-07-11T17:03:01.078Z,34.10
2023-07-11T17:05:33.683Z,34.10
2023-07-11T17:08:12.780Z,34.10
2023-07-11T17:10:53.323Z,34.10
2023-07-11T17:13:31.403Z,34.10
2023-07-11T17:16:06.771Z,34.10
2023-07-11T17:18:39.573Z,34.20
2023-07-11T17:21:21.825Z,34.10
2023-07-11T17:23:54.453Z,34.10
2023-07-11T17:26:27.028Z,34.00
2023-07-11T17:29:01.160Z,33.90
2023-07-11T17:31:40.924Z,33.80
2023-07-11T17:34:15.184Z,33.70
2023-07-11T17:36:49.705Z,33.60
2023-07-11T17:39:25.170Z,33.60
2023-07-11T17:42:04.980Z,33.50
2023-07-11T17:44:48.120Z,33.40
2023-07-11T17:47:36.622Z,33.30
2023-07-11T17:50:24.467Z,33.30
2023-07-11T17:52:57.446Z,33.20
2023-07-11T17:55:30.602Z,33.10
2023-07-11T17:58:04.303Z,33.00
2023-07-11T18:00:57.693Z,32.90
2023-07-11T18:03:33.612Z,32.90
2023-07-11T18:06:06.075Z,32.80
2023-07-11T18:08:39.089Z,32.70
2023-07-11T18:11:18.709Z,32.60
2023-07-11T18:13:51.903Z,32.50
2023-07-11T18:16:28.881Z,32.40
2023-07-11T18:19:01.266Z,32.30
2023-07-11T18:21:33.518Z,32.20
2023-07-11T18:24:07.257Z,32.00
2023-07-11T18:26:41.231Z,32.00
2023-07-11T18:29:13.793Z,31.90
2023-07-11T18:31:47.343Z,31.80
2023-07-11T18:34:20.112Z,31.70
2023-07-11T18:36:54.671Z,31.60
2023-07-11T18:39:27.358Z,31.50
2023-07-11T18:42:17.546Z,31.50
2023-07-11T18:44:54.492Z,31.40
2023-07-11T18:47:37.066Z,31.40
2023-07-11T18:50:25.616Z,31.30
2023-07-11T18:53:03.416Z,31.20
2023-07-11T18:55:36.162Z,31.20
2023-07-11T18:58:18.777Z,31.10
2023-07-11T19:00:51.197Z,31.10
2023-07-11T19:03:23.994Z,31.00
2023-07-11T19:05:56.302Z,30.90
2023-07-11T19:08:28.453Z,30.90
2023-07-11T19:11:00.564Z,30.80
2023-07-11T19:13:32.635Z,30.80
2023-07-11T19:16:05.011Z,30.80
2023-07-11T19:18:46.246Z,30.80
2023-07-11T19:21:18.742Z,30.70
2023-07-11T19:23:51.630Z,30.60
2023-07-11T19:26:24.858Z,30.30
2023-07-11T19:31:52.020Z,29.30
2023-07-11T19:34:55.447Z,28.80
2023-07-11T19:40:57.230Z,27.70
2023-07-11T19:47:02.025Z,27.20
2023-07-11T19:49:59.426Z,27.10
2023-07-11T19:53:03.463Z,26.80
2023-07-11T19:55:42.003Z,26.60
2023-07-11T19:58:18.901Z,26.20
2023-07-11T20:01:01.640Z,25.80
2023-07-11T20:03:34.809Z,25.30
2023-07-11T20:06:23.725Z,25.00
2023-07-11T20:08:56.200Z,24.70
2023-07-11T20:11:28.452Z,24.40
2023-07-11T20:14:00.592Z,24.20
2023-07-11T20:16:34.323Z,24.10
2023-07-11T20:19:09.304Z,23.90
2023-07-11T20:21:44.834Z,23.70
2023-07-11T20:24:16.916Z,23.50
2023-07-11T20:26:50.583Z,23.30
2023-07-11T20:29:22.968Z,23.10
2023-07-11T20:31:55.180Z,23.00
2023-07-11T20:34:27.635Z,22.90
2023-07-11T20:36:59.860Z,22.80
2023-07-11T20:39:32.456Z,22.60
2023-07-11T20:42:06.084Z,22.50
2023-07-11T20:44:38.865Z,22.50
2023-07-11T20:47:14.758Z,22.50
2023-07-11T20:49:47.080Z,22.50
2023-07-11T20:52:20.550Z,22.60
2023-07-11T20:54:52.737Z,22.60
2023-07-11T20:57:25.173Z,22.60
2023-07-11T20:59:57.376Z,22.60
2023-07-11T21:02:29.718Z,22.30
2023-07-11T21:05:02.094Z,22.20
2023-07-11T21:07:34.660Z,22.00
2023-07-11T21:10:29.197Z,21.90
2023-07-11T21:13:12.876Z,21.70
2023-07-11T21:15:45.119Z,21.50
2023-07-11T21:18:19.900Z,21.40
2023-07-11T21:20:55.262Z,21.30
2023-07-11T21:23:27.676Z,21.20
2023-07-11T21:26:01.766Z,21.20
2023-07-11T21:28:42.755Z,21.20
2023-07-11T21:31:18.648Z,21.10
2023-07-11T21:33:51.921Z,21.20
2023-07-11T21:36:25.558Z,21.20
2023-07-11T21:38:57.748Z,21.20
2023-07-11T21:41:29.892Z,21.30
2023-07-11T21:44:02.150Z,21.40
2023-07-11T21:46:36.018Z,21.40
2023-07-11T21:49:10.820Z,21.40
2023-07-11T21:51:44.575Z,21.50
2023-07-11T21:54:16.724Z,21.50
2023-07-11T21:56:48.775Z,21.60
2023-07-11T21:59:22.872Z,21.60
2023-07-11T22:01:54.904Z,21.70
2023-07-11T22:04:27.091Z,21.70
2023-07-11T22:06:59.358Z,21.70
2023-07-11T22:09:33.863Z,21.70
2023-07-11T22:12:06.351Z,21.60
2023-07-11T22:14:38.719Z,21.60
2023-07-11T22:17:24.222Z,21.60
2023-07-11T22:19:58.354Z,21.60
2023-07-11T22:22:31.795Z,21.60
2023-07-11T22:25:05.779Z,21.60
2023-07-11T22:27:39.963Z,21.50
2023-07-11T22:30:18.822Z,21.50
2023-07-11T22:33:02.223Z,21.50
2023-07-11T22:35:36.497Z,21.50
2023-07-11T22:38:13.000Z,21.40
2023-07-11T22:40:49.150Z,21.20
2023-07-11T22:43:27.245Z,21.00
2023-07-11T22:46:15.337Z,20.90
2023-07-11T22:48:50.530Z,20.80
2023-07-11T22:51:22.708Z,20.60
2023-07-11T22:53:54.805Z,20.50
2023-07-11T22:56:27.102Z,20.50
2023-07-11T22:58:59.369Z,20.50
2023-07-11T23:01:31.517Z,20.40
2023-07-11T23:04:04.422Z,20.40
2023-07-11T23:06:38.906Z,20.30
2023-07-11T23:09:16.392Z,20.40
2023-07-11T23:11:48.730Z,20.40
2023-07-11T23:14:20.838Z,20.40
2023-07-11T23:16:52.818Z,20.50
2023-07-11T23:19:25.069Z,20.50
2023-07-11T23:21:57.737Z,20.50
2023-07-11T23:24:29.852Z,20.60
2023-07-11T23:27:04.999Z,20.60
2023-07-11T23:29:40.213Z,20.60
2023-07-11T23:32:12.221Z,20.60
2023-07-11T23:34:44.270Z,20.60
2023-07-11T23:37:16.255Z,20.60
2023-07-11T23:39:48.300Z,20.60
2023-07-11T23:42:20.328Z,20.60
2023-07-11T23:44:52.279Z,20.60
2023-07-11T23:47:24.534Z,20.60
2023-07-11T23:49:56.551Z,20.50
2023-07-11T23:52:28.544Z,20.60
2023-07-11T23:55:00.680Z,20.50
2023-07-11T23:57:32.852Z,20.50
